Time;durP1;ratioP1;P1;durP2;ratioP2;P2;SDS_P1;SDS_P2;PMS_P1;PMS_P2;Temp;Humidity;BMP_temperature;BMP_pressure;BME280_temperature;BME280_humidity;BME280_pressure;Samples;Min_cycle;Max_cycle;Signal;HPM_P1;HPM_P2
2024/01/04 00:01:12;;;;;;;6.82;3.85;;;;;;;11.42;70.66;99858.88;5088587;28;20042;-76
2024/01/04 00:03:37;;;;;;;5.57;5.07;;;;;;;11.47;71.21;99878.97;5088667;28;20020;-76
2024/01/04 00:06:03;;;;;;;4.97;3.78;;;;;;;11.61;70.55;99891.09;5088461;28;20024;-76
2024/01/04 00:08:29;;;;;;;5.55;4.43;;;;;;;11.62;70.15;99892.78;5088064;28;20043;-76
2024/01/04 00:10:54;;;;;;;6.65;5.00;;;;;;;11.62;70.61;99884.69;5088404;28;20032;-77
2024/01/04 00:13:20;;;;;;;7.22;4.13;;;;;;;11.69;69.96;99883.13;5068077;28;20032;-76
2024/01/04 00:15:45;;;;;;;4.97;3.45;;;;;;;11.73;69.43;99895.31;5069159;28;20032;-75
2024/01/04 00:18:11;;;;;;;4.20;3.80;;;;;;;11.65;70.05;99875.50;5068083;28;20025;-77
2024/01/04 00:20:36;;;;;;;6.40;3.92;;;;;;;11.81;69.71;99905.34;5067757;28;20439;-76
2024/01/04 00:23:02;;;;;;;6.47;3.97;;;;;;;11.83;69.07;99906.06;5067599;28;20470;-76
2024/01/04 00:25:27;;;;;;;4.07;3.38;;;;;;;11.75;69.59;99898.72;5067962;28;20056;-75
2024/01/04 00:27:53;;;;;;;4.75;3.38;;;;;;;11.82;69.08;99910.59;5085924;28;20024;-76
2024/01/04 00:30:18;;;;;;;4.43;3.75;;;;;;;11.84;69.23;99895.13;5087692;28;20112;-75
2024/01/04 00:32:44;;;;;;;4.45;3.80;;;;;;;11.78;69.36;99882.25;5088222;28;20028;-75
2024/01/04 00:35:09;;;;;;;7.30;3.78;;;;;;;11.89;69.05;99895.53;5088279;28;20023;-78
2024/01/04 00:37:35;;;;;;;5.40;3.78;;;;;;;11.94;69.08;99913.91;5087540;28;20024;-75
2024/01/04 00:40:00;;;;;;;8.50;4.30;;;;;;;11.97;68.92;99916.31;5068777;28;20458;-75
2024/01/04 00:42:26;;;;;;;5.32;3.88;;;;;;;11.88;68.72;99892.97;5088344;28;20056;-77
2024/01/04 00:44:51;;;;;;;5.68;4.18;;;;;;;11.98;68.43;99923.41;5090753;28;20028;-78
2024/01/04 00:47:17;;;;;;;8.10;4.78;;;;;;;11.95;68.46;99924.56;5087482;28;20082;-76
2024/01/04 00:49:42;;;;;;;8.07;4.47;;;;;;;11.93;68.81;99923.00;5074068;28;20032;-76
2024/01/04 00:52:08;;;;;;;6.45;4.20;;;;;;;11.91;68.57;99920.47;5067450;28;20025;-77
2024/01/04 00:54:33;;;;;;;5.38;4.25;;;;;;;11.89;68.58;99916.22;5082617;28;20044;-75
2024/01/04 00:56:59;;;;;;;6.57;4.57;;;;;;;11.84;68.69;99913.13;5082836;28;20114;-75
2024/01/04 00:59:25;;;;;;;6.55;4.82;;;;;;;11.82;68.40;99910.59;5087527;28;20074;-77
2024/01/04 01:01:51;;;;;;;6.25;5.15;;;;;;;11.89;68.85;99921.63;5087306;28;20035;-77
2024/01/04 01:04:17;;;;;;;7.78;6.03;;;;;;;11.87;68.51;99916.38;5087330;28;20419;-77
2024/01/04 01:06:42;;;;;;;7.57;6.07;;;;;;;11.75;68.12;99898.72;5087522;28;20024;-75
2024/01/04 01:09:08;;;;;;;7.80;6.63;;;;;;;11.62;68.03;99886.56;5087699;28;20031;-78
2024/01/04 01:11:33;;;;;;;11.10;7.00;;;;;;;11.65;68.58;99908.66;5087717;28;20036;-75
2024/01/04 01:13:59;;;;;;;12.50;7.28;;;;;;;11.42;68.22;99875.88;5087492;28;20034;-76
2024/01/04 01:16:25;;;;;;;10.10;6.25;;;;;;;11.52;68.66;99924.31;5102434;28;20568;-76
2024/01/04 01:18:50;;;;;;;10.23;6.50;;;;;;;11.40;68.99;99920.13;5086093;28;20021;-76
2024/01/04 01:21:16;;;;;;;9.73;7.03;;;;;;;11.21;69.11;99893.25;5087316;28;20589;-76
2024/01/04 01:23:41;;;;;;;11.50;8.05;;;;;;;11.30;69.94;99908.53;5086313;28;20032;-78
2024/01/04 01:26:07;;;;;;;10.55;7.72;;;;;;;11.18;69.70;99898.94;5087583;28;20059;-77
2024/01/04 01:28:33;;;;;;;10.05;7.57;;;;;;;11.02;69.84;99886.09;5087806;28;20032;-77
2024/01/04 01:31:01;;;;;;;11.30;8.30;;;;;;;11.12;70.52;99907.59;5088263;28;20516;-78
2024/01/04 01:33:27;;;;;;;14.05;9.05;;;;;;;11.02;70.50;99896.00;5089927;28;20120;-76
2024/01/04 01:35:53;;;;;;;12.98;9.18;;;;;;;11.01;70.88;99911.28;5087848;28;20517;-75
2024/01/04 01:38:18;;;;;;;14.07;8.63;;;;;;;10.98;71.00;99911.56;5093410;28;20028;-75
2024/01/04 01:40:44;;;;;;;10.57;8.05;;;;;;;10.97;70.42;99903.66;5089080;28;20107;-76
2024/01/04 01:43:11;;;;;;;17.10;9.15;;;;;;;10.78;70.94;99880.34;5087807;28;20427;-76
2024/01/04 01:45:37;;;;;;;13.30;8.57;;;;;;;10.91;71.21;99899.72;5087514;28;20032;-75
2024/01/04 01:48:05;;;;;;;11.90;8.50;;;;;;;10.92;71.68;99910.31;5087253;28;20036;-75
2024/01/04 01:50:31;;;;;;;10.63;8.38;;;;;;;10.90;71.63;99916.84;5090050;28;20098;-77
2024/01/04 01:52:57;;;;;;;11.43;6.75;;;;;;;10.61;71.64;99865.75;5090938;28;20498;-76
2024/01/04 01:55:24;;;;;;;8.77;6.70;;;;;;;10.93;71.55;99917.41;5091096;28;20056;-77
2024/01/04 01:57:51;;;;;;;8.32;6.55;;;;;;;10.96;71.33;99905.50;5088125;28;20032;-75
2024/01/04 02:00:18;;;;;;;12.05;6.90;;;;;;;10.96;72.14;99910.88;5088353;28;20639;-76
2024/01/04 02:02:47;;;;;;;9.95;6.88;;;;;;;10.97;71.73;99900.97;5090610;28;20028;-76
2024/01/04 02:05:14;;;;;;;8.43;7.22;;;;;;;11.07;71.58;99917.94;5090678;28;20032;-76
2024/01/04 02:07:39;;;;;;;10.38;6.57;;;;;;;11.03;71.61;99906.63;5090516;28;20016;-76
2024/01/04 02:10:09;;;;;;;8.30;5.80;;;;;;;11.12;70.94;99910.28;5090671;28;20058;-77
2024/01/04 02:12:34;;;;;;;7.50;6.25;;;;;;;11.18;70.84;99915.06;5089978;28;20028;-76
2024/01/04 02:15:00;;;;;;;11.30;6.68;;;;;;;11.16;71.25;99911.69;5090523;28;20039;-77
2024/01/04 02:17:26;;;;;;;7.30;5.80;;;;;;;11.12;70.99;99915.66;5090170;28;20020;-75
2024/01/04 02:19:52;;;;;;;8.73;6.47;;;;;;;11.08;70.89;99900.78;5090155;28;20063;-76
2024/01/04 02:22:17;;;;;;;7.63;5.55;;;;;;;11.27;70.76;99916.88;5090858;28;20036;-76
2024/01/04 02:24:43;;;;;;;12.45;6.07;;;;;;;11.33;71.27;99919.84;5089274;28;20123;-77
2024/01/04 02:27:10;;;;;;;8.45;5.93;;;;;;;11.40;70.80;99915.59;5111852;28;20040;-78
2024/01/04 02:29:35;;;;;;;6.15;5.55;;;;;;;11.41;70.34;99908.31;5106156;28;20089;-77
2024/01/04 02:32:01;;;;;;;7.50;5.57;;;;;;;11.48;69.78;99917.53;5095934;28;20024;-74
2024/01/04 02:34:26;;;;;;;10.70;7.32;;;;;;;11.52;69.48;99923.47;5096566;28;20036;-78
2024/01/04 02:36:52;;;;;;;10.23;6.93;;;;;;;11.47;69.16;99911.28;5093266;28;20385;-76
2024/01/04 02:39:17;;;;;;;9.60;7.07;;;;;;;11.45;70.14;99917.81;5093042;28;20020;-76
2024/01/04 02:41:43;;;;;;;13.20;8.25;;;;;;;11.40;69.48;99906.66;5090281;28;20028;-76
2024/01/04 02:44:08;;;;;;;27.42;12.10;;;;;;;11.34;69.45;99897.28;5089968;28;20483;-75
2024/01/04 02:46:34;;;;;;;13.82;9.20;;;;;;;11.41;69.46;99919.09;5089587;28;20020;-75
2024/01/04 02:48:59;;;;;;;11.95;7.35;;;;;;;11.33;69.82;99902.84;5090426;28;20483;-76
2024/01/04 02:51:25;;;;;;;8.85;6.45;;;;;;;11.31;69.77;99902.16;5090822;28;20495;-77
2024/01/04 02:53:50;;;;;;;9.73;6.07;;;;;;;11.33;70.20;99903.69;5089937;28;20411;-76
2024/01/04 02:56:16;;;;;;;9.20;6.90;;;;;;;11.33;70.21;99909.09;5089809;28;20066;-76
2024/01/04 02:58:45;;;;;;;9.50;6.45;;;;;;;11.34;70.42;99910.75;5089655;28;20139;-76
2024/01/04 03:01:11;;;;;;;12.65;9.32;;;;;;;11.39;70.18;99902.25;5089089;28;20031;-76
2024/01/04 03:03:36;;;;;;;14.88;10.23;;;;;;;11.36;69.53;99906.09;5088352;28;20407;-78
2024/01/04 03:06:02;;;;;;;15.73;11.93;;;;;;;11.35;69.84;99908.91;5088347;28;20093;-76
2024/01/04 03:08:27;;;;;;;17.80;13.07;;;;;;;11.36;69.92;99918.69;5090112;28;20036;-76
2024/01/04 03:10:53;;;;;;;27.02;16.83;;;;;;;11.32;69.85;99917.28;5090702;28;20035;-76
2024/01/04 03:13:19;;;;;;;27.15;18.95;;;;;;;11.27;69.82;99919.59;5090160;28;20472;-80
2024/01/04 03:15:44;;;;;;;27.20;17.73;;;;;;;11.29;69.42;99913.06;5091822;28;20024;-79
2024/01/04 03:18:10;;;;;;;23.92;17.55;;;;;;;11.31;70.07;99923.69;5101368;28;20448;-79
2024/01/04 03:20:35;;;;;;;22.80;16.05;;;;;;;11.30;69.51;99912.06;5100081;28;20043;-77
2024/01/04 03:23:01;;;;;;;22.85;14.60;;;;;;;11.33;69.70;99919.00;5090308;28;20024;-76
2024/01/04 03:25:26;;;;;;;19.85;14.02;;;;;;;11.33;69.45;99919.00;5089632;28;20066;-76
2024/01/04 03:27:52;;;;;;;18.17;13.23;;;;;;;11.33;69.63;99913.63;5089365;28;20110;-77
2024/01/04 03:30:17;;;;;;;18.15;12.52;;;;;;;11.32;69.46;99918.16;5088951;28;20024;-76
2024/01/04 03:32:43;;;;;;;15.82;10.32;;;;;;;11.25;69.21;99919.72;5088958;28;20024;-76
2024/01/04 03:35:08;;;;;;;13.75;9.23;;;;;;;11.20;69.79;99924.69;5088928;28;20039;-76
2024/01/04 03:37:34;;;;;;;10.15;7.95;;;;;;;10.99;69.42;99902.50;5088656;28;20016;-77
2024/01/04 03:39:59;;;;;;;10.68;8.13;;;;;;;11.11;70.09;99933.66;5088648;28;20039;-77
2024/01/04 03:42:25;;;;;;;12.13;7.55;;;;;;;11.07;70.08;99926.03;5088940;28;20095;-77
2024/01/04 03:44:50;;;;;;;9.63;7.05;;;;;;;11.10;70.45;99926.56;5089080;28;20032;-77
2024/01/04 03:47:16;;;;;;;10.50;7.97;;;;;;;11.20;70.20;99929.22;5088375;28;20052;-75
2024/01/04 03:49:41;;;;;;;15.68;9.25;;;;;;;11.13;70.48;99918.19;5088902;28;20028;-76
2024/01/04 03:52:07;;;;;;;14.63;10.20;;;;;;;11.21;69.71;99933.63;5088869;28;20456;-75
2024/01/04 03:54:32;;;;;;;15.63;10.13;;;;;;;11.19;70.16;99939.13;5088729;28;20024;-74
2024/01/04 03:56:58;;;;;;;10.27;7.60;;;;;;;11.19;69.71;99941.00;5085929;28;20043;-77
2024/01/04 03:59:24;;;;;;;9.35;7.55;;;;;;;11.19;70.05;99928.38;5089091;28;20024;-76
2024/01/04 04:01:49;;;;;;;9.02;5.97;;;;;;;11.24;69.72;99930.63;5089212;28;20111;-76
2024/01/04 04:04:15;;;;;;;8.07;5.65;;;;;;;11.26;70.03;99940.25;5088996;28;20031;-78
2024/01/04 04:06:41;;;;;;;8.98;5.28;;;;;;;11.27;69.72;99931.19;5092511;28;20051;-76
2024/01/04 04:09:07;;;;;;;10.63;7.13;;;;;;;11.31;69.93;99947.91;5096374;28;20412;-75
2024/01/04 04:11:33;;;;;;;12.60;6.80;;;;;;;11.29;69.88;99945.34;5091607;28;20055;-76
2024/01/04 04:13:59;;;;;;;9.10;6.18;;;;;;;11.26;69.19;99944.78;5086979;28;20449;-77
2024/01/04 04:16:25;;;;;;;7.78;6.43;;;;;;;11.22;69.58;99938.03;5088390;28;20115;-76
2024/01/04 04:18:50;;;;;;;10.10;7.05;;;;;;;11.20;69.81;99932.78;5088795;28;20054;-76
2024/01/04 04:21:23;;;;;;;9.40;7.05;;;;;;;11.31;69.73;99932.59;5088972;28;20024;-78
2024/01/04 04:23:50;;;;;;;9.40;7.90;;;;;;;11.28;69.47;99937.44;5088478;28;20031;-76
2024/01/04 04:26:22;;;;;;;10.88;7.80;;;;;;;11.20;69.21;99938.16;5087898;28;20047;-76
2024/01/04 04:28:48;;;;;;;14.07;9.15;;;;;;;11.21;69.42;99945.25;5087674;28;20590;-77
2024/01/04 04:31:15;;;;;;;14.70;10.05;;;;;;;11.19;69.31;99954.47;5088291;28;20036;-76
2024/01/04 04:33:43;;;;;;;12.30;8.63;;;;;;;11.04;69.50;99935.22;5088283;28;20772;-77
2024/01/04 04:36:10;;;;;;;11.35;9.20;;;;;;;11.20;69.76;99956.13;5088414;28;20543;-76
2024/01/04 04:38:35;;;;;;;14.70;11.25;;;;;;;11.10;69.85;99950.78;5087860;28;20020;-76
2024/01/04 04:41:04;;;;;;;24.85;13.20;;;;;;;11.19;69.89;99971.44;5087883;28;20047;-76
2024/01/04 04:43:30;;;;;;;18.15;12.15;;;;;;;11.11;69.73;99974.00;5087931;28;20050;-76
2024/01/04 04:45:56;;;;;;;19.67;13.43;;;;;;;11.15;69.85;99985.34;5085380;28;20115;-75
2024/01/04 04:48:22;;;;;;;24.63;13.13;;;;;;;10.99;69.92;99966.22;5087046;28;20525;-75
2024/01/04 04:50:49;;;;;;;26.23;13.90;;;;;;;11.01;69.95;99966.97;5087947;28;20028;-75
2024/01/04 04:53:15;;;;;;;22.85;13.48;;;;;;;11.05;70.13;99976.41;5087525;28;20052;-77
2024/01/04 04:55:41;;;;;;;24.77;14.98;;;;;;;11.08;69.81;99978.81;5087704;28;20121;-76
2024/01/04 04:58:06;;;;;;;26.15;14.40;;;;;;;11.01;69.59;99975.84;5094783;28;20028;-75
2024/01/04 05:00:32;;;;;;;22.85;14.68;;;;;;;11.05;69.89;99987.19;5095930;28;20031;-77
2024/01/04 05:02:57;;;;;;;28.67;17.30;;;;;;;11.04;70.01;99989.03;5087956;28;20108;-76
2024/01/04 05:05:23;;;;;;;24.58;16.42;;;;;;;11.01;69.80;99986.63;5087577;28;20024;-76
2024/01/04 05:07:48;;;;;;;33.22;17.50;;;;;;;11.02;69.78;99995.53;5086260;28;20089;-76
2024/01/04 05:10:14;;;;;;;28.98;17.15;;;;;;;10.85;70.11;99951.41;5087775;28;20044;-78
2024/01/04 05:12:39;;;;;;;31.08;17.95;;;;;;;10.98;70.25;99983.38;5087257;28;20451;-75
2024/01/04 05:15:05;;;;;;;24.67;16.77;;;;;;;11.00;70.25;99970.63;5086349;28;20117;-78
2024/01/04 05:17:31;;;;;;;23.55;15.25;;;;;;;10.95;70.35;99979.13;5087294;28;20024;-77
2024/01/04 05:19:56;;;;;;;28.48;16.40;;;;;;;10.93;70.30;99981.97;5085946;28;20020;-75
2024/01/04 05:22:22;;;;;;;26.17;16.52;;;;;;;10.95;70.08;99986.38;5086316;28;20027;-76
2024/01/04 05:24:47;;;;;;;25.35;15.13;;;;;;;10.90;70.34;99990.31;5090651;28;20032;-78
2024/01/04 05:27:13;;;;;;;23.33;16.98;;;;;;;10.92;70.57;99995.53;5090521;28;20186;-80
2024/01/04 05:29:39;;;;;;;27.02;15.25;;;;;;;10.92;70.24;100007.16;5091382;28;20084;-77
2024/01/04 05:32:04;;;;;;;35.30;19.00;;;;;;;10.91;70.67;100001.94;5091819;28;20063;-77
2024/01/04 05:34:32;;;;;;;29.45;20.10;;;;;;;10.82;70.90;99994.72;5091219;28;20032;-77
2024/01/04 05:37:00;;;;;;;35.78;20.75;;;;;;;10.88;70.95;99994.16;5091791;28;20032;-75
2024/01/04 05:39:26;;;;;;;43.53;26.55;;;;;;;10.80;70.63;99970.63;5091882;28;20479;-76
2024/01/04 05:41:51;;;;;;;55.22;29.77;;;;;;;10.93;70.96;99981.97;5091883;28;20032;-75
2024/01/04 05:44:17;;;;;;;57.75;33.85;;;;;;;11.01;70.82;99985.81;5091480;28;20030;-75
2024/01/04 05:46:43;;;;;;;32.80;20.00;;;;;;;11.01;70.99;99991.19;5091712;28;20027;-77
2024/01/04 05:49:09;;;;;;;35.08;19.23;;;;;;;10.90;71.24;99971.50;5099401;28;20080;-78
2024/01/04 05:51:34;;;;;;;23.08;14.98;;;;;;;11.05;70.76;99984.50;5092465;28;20028;-75
2024/01/04 05:54:02;;;;;;;24.08;15.45;;;;;;;11.09;70.71;99988.59;5091468;28;20039;-74
2024/01/04 05:56:27;;;;;;;35.38;22.73;;;;;;;11.09;70.93;99994.00;5090722;28;20032;-77
2024/01/04 05:58:53;;;;;;;33.60;22.65;;;;;;;10.92;70.68;99985.63;5090898;28;20039;-78
2024/01/04 06:01:18;;;;;;;25.25;18.23;;;;;;;10.97;71.35;99989.75;5091180;28;20107;-77
2024/01/04 06:03:44;;;;;;;29.55;17.65;;;;;;;10.99;70.74;99988.63;5091218;28;20450;-80
2024/01/04 06:06:14;;;;;;;22.45;15.90;;;;;;;10.96;70.47;99996.97;5090597;28;20111;-76
2024/01/04 06:08:40;;;;;;;23.45;15.20;;;;;;;10.96;70.35;99998.81;5090261;28;20115;-75
2024/01/04 06:11:06;;;;;;;20.33;13.90;;;;;;;10.87;70.92;99990.63;5090171;28;20943;-77
2024/01/04 06:13:31;;;;;;;19.23;14.07;;;;;;;10.71;70.54;99974.19;5090589;28;20024;-77
2024/01/04 06:15:57;;;;;;;24.67;15.98;;;;;;;10.88;70.93;100000.38;5089078;28;20043;-75
2024/01/04 06:18:22;;;;;;;21.52;13.68;;;;;;;10.70;71.11;99955.50;5090617;28;20043;-76
2024/01/04 06:20:48;;;;;;;21.92;14.23;;;;;;;10.90;71.21;99982.25;5090278;28;20094;-77
2024/01/04 06:23:15;;;;;;;17.15;12.55;;;;;;;10.90;71.33;99984.94;5090360;28;20020;-78
2024/01/04 06:25:40;;;;;;;19.42;12.07;;;;;;;10.92;71.37;99974.03;5090596;28;20055;-77
2024/01/04 06:28:06;;;;;;;18.20;12.40;;;;;;;10.99;71.20;99974.31;5090734;28;20017;-78
2024/01/04 06:30:34;;;;;;;23.25;12.43;;;;;;;11.07;71.14;99977.16;5088455;28;20044;-79
2024/01/04 06:33:00;;;;;;;21.30;12.95;;;;;;;10.96;71.06;99951.22;5092043;28;20032;-75
2024/01/04 06:35:25;;;;;;;17.08;11.43;;;;;;;11.16;70.99;99981.66;5089183;28;20039;-76
2024/01/04 06:37:51;;;;;;;19.83;10.15;;;;;;;11.16;71.12;99984.34;5099916;28;20626;-77
2024/01/04 06:40:16;;;;;;;22.20;11.80;;;;;;;11.26;70.76;99977.94;5104722;28;20034;-79
2024/01/04 06:42:42;;;;;;;19.10;11.35;;;;;;;11.30;70.30;99975.81;5092129;28;20392;-77
2024/01/04 06:45:08;;;;;;;18.83;11.32;;;;;;;11.29;70.04;99974.13;5090255;28;20032;-76
2024/01/04 06:47:34;;;;;;;17.00;9.98;;;;;;;11.22;70.34;99949.63;5090333;28;20468;-76
2024/01/04 06:49:59;;;;;;;17.92;10.70;;;;;;;11.42;70.24;99974.66;5090576;28;20028;-76
2024/01/04 06:52:25;;;;;;;13.98;10.20;;;;;;;11.47;70.23;99966.97;5090148;28;20491;-75
2024/01/04 06:54:50;;;;;;;10.02;7.38;;;;;;;11.54;71.11;99964.53;5090608;28;20028;-77
2024/01/04 06:57:16;;;;;;;16.58;9.23;;;;;;;11.62;71.07;99952.03;5087652;28;20063;-77
2024/01/04 06:59:42;;;;;;;20.10;8.77;;;;;;;11.77;70.58;99958.66;5090007;28;20111;-78
2024/01/04 07:02:08;;;;;;;15.95;7.68;;;;;;;11.92;70.19;99948.25;5089811;28;20028;-78
2024/01/04 07:04:33;;;;;;;18.17;10.73;;;;;;;11.79;69.63;99920.81;5090687;28;20028;-77
2024/01/04 07:06:59;;;;;;;26.67;14.55;;;;;;;12.04;69.14;99952.44;5090087;28;20043;-77
2024/01/04 07:09:24;;;;;;;34.75;17.05;;;;;;;12.15;69.74;99954.94;5090025;28;20107;-79
2024/01/04 07:11:51;;;;;;;28.27;16.17;;;;;;;12.26;69.02;99959.28;5090528;28;20047;-78
2024/01/04 07:14:16;;;;;;;32.85;20.85;;;;;;;12.34;69.71;99953.97;5089840;28;20020;-75
2024/01/04 07:16:46;;;;;;;36.20;22.10;;;;;;;12.44;69.70;99965.53;5090061;28;20086;-75
2024/01/04 07:19:12;;;;;;;63.22;35.95;;;;;;;12.51;69.17;99966.59;5090293;28;20093;-75
2024/01/04 07:21:39;;;;;;;51.42;31.27;;;;;;;12.62;68.78;99958.31;5091072;28;20028;-76
2024/01/04 07:24:05;;;;;;;54.30;32.17;;;;;;;12.67;68.63;99965.91;5091416;28;20035;-75
2024/01/04 07:26:30;;;;;;;50.60;31.08;;;;;;;12.74;68.77;99964.31;5091662;28;20052;-76
2024/01/04 07:28:56;;;;;;;57.05;31.70;;;;;;;12.88;68.42;99961.03;5102169;28;20020;-77
2024/01/04 07:31:21;;;;;;;47.33;28.13;;;;;;;12.97;67.32;99962.81;5095270;28;20036;-77
2024/01/04 07:33:47;;;;;;;54.78;31.77;;;;;;;13.13;66.83;99962.97;5090036;28;20023;-79
2024/01/04 07:36:14;;;;;;;45.63;23.63;;;;;;;13.19;66.24;99956.09;5089322;28;20442;-76
2024/01/04 07:38:40;;;;;;;31.13;18.02;;;;;;;13.36;64.96;99963.31;5086791;28;20032;-77
2024/01/04 07:41:05;;;;;;;37.35;22.52;;;;;;;13.29;64.74;99940.66;5089404;28;21446;-76
2024/01/04 07:43:31;;;;;;;45.70;21.77;;;;;;;13.47;64.47;99957.66;5087906;28;20424;-78
2024/01/04 07:45:56;;;;;;;27.80;16.33;;;;;;;13.57;64.13;99961.09;5087514;28;20032;-77
2024/01/04 07:48:22;;;;;;;32.70;20.63;;;;;;;13.70;63.66;99968.75;5088712;28;20058;-76
2024/01/04 07:50:47;;;;;;;32.00;18.98;;;;;;;13.70;63.27;99956.06;5089031;28;20024;-76
2024/01/04 07:53:13;;;;;;;34.45;20.77;;;;;;;13.85;62.86;99970.66;5088684;28;20050;-75
2024/01/04 07:55:39;;;;;;;44.45;20.67;;;;;;;13.86;62.66;99977.78;5069255;28;20140;-78
2024/01/04 07:58:04;;;;;;;32.35;19.75;;;;;;;13.88;62.49;99967.66;5088625;28;20020;-76
2024/01/04 08:00:30;;;;;;;40.47;23.63;;;;;;;13.96;62.58;99977.66;5089347;28;20032;-80
2024/01/04 08:02:55;;;;;;;41.28;19.77;;;;;;;14.03;62.09;99984.97;5088785;28;20024;-78
2024/01/04 08:05:21;;;;;;;30.52;20.48;;;;;;;14.09;61.77;99986.19;5088657;28;20031;-75
2024/01/04 08:07:46;;;;;;;32.47;19.08;;;;;;;14.09;61.27;99984.31;5088697;28;20405;-75
2024/01/04 08:10:12;;;;;;;36.80;19.88;;;;;;;14.12;61.26;99993.97;5087896;28;20510;-77
2024/01/04 08:12:41;;;;;;;28.85;18.17;;;;;;;13.95;61.49;99976.81;5089439;28;20034;-75
2024/01/04 08:15:08;;;;;;;25.92;14.00;;;;;;;13.72;61.13;99943.25;5089652;28;20027;-75
2024/01/04 08:17:35;;;;;;;14.90;8.90;;;;;;;14.05;60.31;99993.75;5100214;28;20032;-77
2024/01/04 08:20:01;;;;;;;17.63;8.63;;;;;;;14.03;60.21;99989.53;5101966;28;20024;-76
2024/01/04 08:22:26;;;;;;;14.38;8.82;;;;;;;14.05;59.82;99982.09;5091293;28;20085;-75
2024/01/04 08:24:52;;;;;;;8.90;7.25;;;;;;;13.98;59.46;99965.69;5088045;28;20030;-76
2024/01/04 08:27:18;;;;;;;8.82;7.07;;;;;;;13.94;59.72;99958.06;5088097;28;20143;-75
2024/01/04 08:29:48;;;;;;;14.05;8.13;;;;;;;13.91;59.71;99953.00;5088346;28;20028;-74
2024/01/04 08:32:17;;;;;;;12.90;7.22;;;;;;;13.78;59.91;99937.22;5087769;28;20024;-76
2024/01/04 08:34:43;;;;;;;9.10;6.28;;;;;;;13.87;59.53;99940.78;5087923;28;20028;-77
2024/01/04 08:37:09;;;;;;;11.95;6.82;;;;;;;13.83;59.87;99936.72;5087976;28;20052;-77
2024/01/04 08:39:34;;;;;;;13.10;6.47;;;;;;;14.09;60.08;99964.53;5087890;28;20403;-79
2024/01/04 08:42:00;;;;;;;12.48;7.03;;;;;;;14.10;60.24;99940.03;5088098;28;20028;-78
2024/01/04 08:44:25;;;;;;;11.50;5.50;;;;;;;14.35;59.18;99940.13;5088221;28;20020;-77
2024/01/04 08:46:52;;;;;;;16.70;10.18;;;;;;;14.34;58.63;99927.63;5085176;28;20040;-77
2024/01/04 08:49:18;;;;;;;17.80;7.43;;;;;;;14.58;58.34;99930.38;5087858;28;20066;-76
2024/01/04 08:51:43;;;;;;;22.17;10.35;;;;;;;14.63;58.28;99911.78;5086370;28;20124;-77
2024/01/04 08:54:09;;;;;;;18.42;9.18;;;;;;;14.89;58.58;99923.25;5088262;28;20024;-78
2024/01/04 08:56:36;;;;;;;19.85;9.30;;;;;;;15.10;57.92;99920.06;5088533;28;20028;-78
2024/01/04 08:59:04;;;;;;;13.80;8.90;;;;;;;15.19;58.07;99908.19;5090924;28;20060;-76
2024/01/04 09:01:30;;;;;;;16.77;8.68;;;;;;;15.27;57.39;99898.19;5093286;28;20032;-76
2024/01/04 09:03:56;;;;;;;20.67;8.57;;;;;;;15.33;56.97;99888.53;5092391;28;20039;-74
2024/01/04 09:06:22;;;;;;;10.65;7.35;;;;;;;15.52;56.62;99892.75;5100294;28;20028;-80
2024/01/04 09:08:48;;;;;;;17.48;9.10;;;;;;;15.62;55.90;99910.50;5104148;28;20502;-78
2024/01/04 09:11:16;;;;;;;27.30;10.35;;;;;;;15.69;55.30;99886.22;5095337;28;20035;-80
2024/01/04 09:13:44;;;;;;;15.45;10.55;;;;;;;15.77;55.40;99881.63;5092142;28;20035;-76
2024/01/04 09:16:10;;;;;;;13.98;9.15;;;;;;;15.81;54.82;99848.75;5092876;28;20078;-79
2024/01/04 09:18:35;;;;;;;27.50;13.13;;;;;;;16.03;54.62;99880.47;5092661;28;20138;-75
2024/01/04 09:21:01;;;;;;;17.85;10.13;;;;;;;16.04;54.46;99866.75;5091770;28;20020;-77
2024/01/04 09:23:27;;;;;;;20.02;8.48;;;;;;;16.06;53.93;99863.84;5091274;28;20131;-78
2024/01/04 09:25:52;;;;;;;15.63;8.90;;;;;;;16.12;53.33;99869.41;5091111;28;20048;-77
2024/01/04 09:28:18;;;;;;;18.20;9.43;;;;;;;16.17;53.98;99856.16;5091518;28;20066;-78
2024/01/04 09:30:44;;;;;;;22.98;9.00;;;;;;;16.22;53.67;99847.47;5091329;28;20032;-75
2024/01/04 09:33:11;;;;;;;20.30;8.32;;;;;;;16.13;53.47;99830.41;5088540;28;20067;-82
2024/01/04 09:35:37;;;;;;;21.50;8.00;;;;;;;16.24;53.75;99829.13;5072682;28;20638;-81
2024/01/04 09:38:03;;;;;;;17.75;7.72;;;;;;;16.32;53.28;99840.78;5071926;28;20099;-77
2024/01/04 09:40:29;;;;;;;19.70;7.55;;;;;;;16.45;52.93;99853.72;5072084;28;20032;-83
2024/01/04 09:42:55;;;;;;;14.15;7.50;;;;;;;16.33;52.95;99823.47;5071400;28;20558;-77
2024/01/04 09:45:22;;;;;;;40.00;9.90;;;;;;;16.49;52.98;99840.66;5070938;28;20029;-78
2024/01/04 09:47:56;;;;;;;78.93;10.88;;;;;;;16.45;53.49;99823.06;5086240;28;20051;-78
2024/01/04 09:50:22;;;;;;;47.50;8.60;;;;;;;16.54;53.19;99830.13;5073455;28;20119;-77
2024/01/04 09:52:55;;;;;;;24.95;8.07;;;;;;;16.59;52.78;99830.44;5072963;28;20489;-79
2024/01/04 09:55:22;;;;;;;32.33;8.45;;;;;;;16.60;52.86;99823.97;5075010;28;20084;-77
2024/01/04 09:57:48;;;;;;;39.95;9.82;;;;;;;16.59;52.54;99819.56;5079133;28;20020;-76
2024/01/04 10:00:14;;;;;;;29.05;8.32;;;;;;;16.49;53.10;99808.06;5072019;28;20112;-76
2024/01/04 10:02:42;;;;;;;29.02;8.85;;;;;;;16.47;53.04;99808.28;5070538;28;20036;-79
2024/01/04 10:05:15;;;;;;;36.33;11.45;;;;;;;16.38;53.25;99790.38;5070496;28;20028;-78
2024/01/04 10:08:10;;;;;;;48.08;13.45;;;;;;;16.32;53.58;99778.38;5070639;28;20111;-77
2024/01/04 10:10:40;;;;;;;49.35;14.20;;;;;;;16.40;53.17;99790.16;5069302;28;20066;-77
2024/01/04 10:13:08;;;;;;;123.72;15.95;;;;;;;16.40;53.48;99788.31;5068927;28;20025;-78
2024/01/04 10:15:36;;;;;;;34.92;12.32;;;;;;;16.37;53.46;99769.69;5070023;28;20030;-75
2024/01/04 10:18:02;;;;;;;41.85;11.32;;;;;;;16.44;53.08;99775.22;5084781;28;20045;-77
2024/01/04 10:20:29;;;;;;;33.08;10.55;;;;;;;16.24;53.42;99753.16;5070128;28;20100;-78
2024/01/04 10:22:57;;;;;;;31.05;8.65;;;;;;;16.42;52.71;99771.84;5069709;28;20040;-77
2024/01/04 10:25:25;;;;;;;53.58;11.25;;;;;;;16.44;53.28;99765.22;5075927;28;20480;-78
2024/01/04 10:27:58;;;;;;;50.42;11.65;;;;;;;16.53;53.52;99760.56;5090227;28;20085;-77
2024/01/04 10:30:23;;;;;;;35.92;9.63;;;;;;;16.44;52.81;99732.66;5090616;28;20028;-77
2024/01/04 10:32:50;;;;;;;33.22;10.05;;;;;;;16.51;52.84;99732.75;5090817;28;20024;-76
2024/01/04 10:35:23;;;;;;;46.67;12.35;;;;;;;16.55;52.82;99753.09;5092697;28;20106;-77
2024/01/04 10:38:01;;;;;;;20.20;10.40;;;;;;;16.54;52.53;99735.97;5090865;28;20063;-78
2024/01/04 10:40:27;;;;;;;33.05;10.77;;;;;;;16.54;52.50;99737.81;5092111;28;20097;-75
2024/01/04 10:42:53;;;;;;;26.95;10.20;;;;;;;16.53;52.07;99722.53;5091669;28;20485;-77
2024/01/04 10:45:27;;;;;;;30.88;11.57;;;;;;;16.56;52.51;99714.91;5096000;28;20084;-79
2024/01/04 10:47:53;;;;;;;33.72;10.45;;;;;;;16.62;52.46;99703.31;5099405;28;20104;-77
2024/01/04 10:50:22;;;;;;;26.90;10.95;;;;;;;16.54;52.48;99678.97;5094070;28;20024;-77
2024/01/04 10:52:52;;;;;;;33.60;11.23;;;;;;;16.73;52.69;99691.97;5091696;28;20088;-77
2024/01/04 10:55:20;;;;;;;30.65;11.05;;;;;;;16.80;52.56;99673.06;5091268;28;20024;-77
2024/01/04 10:57:46;;;;;;;20.70;9.95;;;;;;;16.93;51.95;99678.69;5090662;28;20036;-77
2024/01/04 11:00:13;;;;;;;46.08;10.93;;;;;;;16.97;52.23;99666.38;5091301;28;20047;-77
2024/01/04 11:02:40;;;;;;;40.70;12.93;;;;;;;17.00;51.71;99663.28;5090601;28;20043;-77
2024/01/04 11:05:09;;;;;;;23.83;9.57;;;;;;;17.07;51.49;99653.38;5091146;28;20036;-78
2024/01/04 11:07:38;;;;;;;32.40;11.32;;;;;;;17.08;51.83;99636.03;5091233;28;20110;-78
2024/01/04 11:10:04;;;;;;;44.22;10.60;;;;;;;17.17;51.30;99645.75;5091420;28;20142;-76
2024/01/04 11:12:32;;;;;;;65.82;13.18;;;;;;;17.12;51.76;99623.78;5091331;28;20048;-77
2024/01/04 11:14:58;;;;;;;40.38;10.05;;;;;;;17.29;51.51;99614.34;5090632;28;20511;-76
2024/01/04 11:17:46;;;;;;;39.55;10.85;;;;;;;17.70;51.25;99633.63;5092341;28;20036;-80